Terminal Aerodrome Forecast
Issued by NWS Dodge City, KS

Home | Current Version | Previous Version | Text Only | Print | Product List | Glossary On
Versions: 1 2 3 4 5 6 7 8 9 10 11 12 13 14 15 16 17 18 19 20 21 22 23 24 25 26 27 28
000
FTUS43 KDDC 212320
TAFDDC
TAF
KDDC 212320Z 2200/2224 09006KT P6SM SCT120
     FM221500 15013KT P6SM FEW120=

USA.gov is the U.S. government's official web portal to all federal, state and local government web resources and services.